createdAt,value
2018-05-07T00:00:23.315Z,43.06
2018-05-07T00:01:23.240Z,44.68
2018-05-07T00:03:15.974Z,46.66
2018-05-07T00:04:15.919Z,46.30
2018-05-07T00:06:08.666Z,45.32
2018-05-07T00:07:08.520Z,46.87
2018-05-07T00:09:01.312Z,46.09
2018-05-07T00:10:01.183Z,46.75
2018-05-07T00:11:54.126Z,47.99
2018-05-07T00:12:53.908Z,47.42
2018-05-07T00:14:46.666Z,46.18
2018-05-07T00:15:46.600Z,46.94
2018-05-07T00:17:39.345Z,46.47
2018-05-07T00:18:39.211Z,46.09
2018-05-07T00:20:32.031Z,46.56
2018-05-07T00:21:31.855Z,45.14
2018-05-07T00:23:24.610Z,47.61
2018-05-07T00:24:24.506Z,47.89
2018-05-07T00:26:17.339Z,47.80
2018-05-07T00:27:17.261Z,48.18
2018-05-07T00:29:10.014Z,46.44
2018-05-07T00:30:09.901Z,45.99
2018-05-07T00:32:02.653Z,46.94
2018-05-07T00:33:02.559Z,46.28
2018-05-07T00:34:55.440Z,47.30
2018-05-07T00:35:55.302Z,48.16
2018-05-07T00:37:48.050Z,47.80
2018-05-07T00:38:47.945Z,46.44
2018-05-07T00:40:40.706Z,44.45
2018-05-07T00:41:40.612Z,45.40
2018-05-07T00:43:33.336Z,44.26
2018-05-07T00:44:33.240Z,45.59
2018-05-07T00:46:25.992Z,45.21
2018-05-07T00:47:25.884Z,46.15
2018-05-07T00:49:18.754Z,45.30
2018-05-07T00:50:18.627Z,43.97
2018-05-07T00:52:11.511Z,44.54
2018-05-07T00:53:11.274Z,44.16
2018-05-07T00:55:04.044Z,43.59
2018-05-07T00:56:03.941Z,43.68
2018-05-07T00:57:56.669Z,45.68
2018-05-07T00:58:56.588Z,44.73
2018-05-07T01:00:49.351Z,41.49
2018-05-07T01:01:49.282Z,40.73
2018-05-07T01:03:41.964Z,41.59
2018-05-07T01:04:41.876Z,42.73
2018-05-07T01:06:34.640Z,43.87
2018-05-07T01:07:34.549Z,45.49
2018-05-07T01:09:27.378Z,44.26
2018-05-07T01:10:27.261Z,42.83
2018-05-07T01:12:20.130Z,42.44
2018-05-07T01:13:20.007Z,41.40
2018-05-07T01:15:12.758Z,40.92
2018-05-07T01:16:12.670Z,42.07
2018-05-07T01:18:05.454Z,42.25
2018-05-07T01:19:05.308Z,42.90
2018-05-07T01:20:58.049Z,42.33
2018-05-07T01:21:57.957Z,41.38
2018-05-07T01:23:50.815Z,37.95
2018-05-07T01:24:50.619Z,36.72
2018-05-07T01:26:43.363Z,35.10
2018-05-07T01:27:43.249Z,36.72
2018-05-07T01:29:36.028Z,39.95
2018-05-07T01:30:35.900Z,39.95
2018-05-07T01:32:28.668Z,40.62
2018-05-07T01:33:28.546Z,40.05
2018-05-07T01:35:21.310Z,39.19
2018-05-07T01:36:21.189Z,38.05
2018-05-07T01:38:13.948Z,39.09
2018-05-07T01:39:13.852Z,38.62
2018-05-07T01:41:06.585Z,36.43
2018-05-07T01:42:06.485Z,36.24
2018-05-07T01:43:59.247Z,37.19
2018-05-07T01:44:59.133Z,35.58
2018-05-07T01:46:51.977Z,37.86
2018-05-07T01:47:51.877Z,38.43
2018-05-07T01:49:44.656Z,33.29
2018-05-07T01:50:44.540Z,31.48
2018-05-07T01:52:37.281Z,32.82
2018-05-07T01:53:37.176Z,34.44
2018-05-07T01:55:29.927Z,34.34
2018-05-07T01:56:29.826Z,34.34
2018-05-07T01:58:22.571Z,32.34
2018-05-07T01:59:22.475Z,31.20
2018-05-07T02:01:15.335Z,30.25
2018-05-07T02:02:15.217Z,31.87
2018-05-07T02:04:07.957Z,34.51
2018-05-07T02:05:07.905Z,33.94
2018-05-07T02:07:00.653Z,33.01
2018-05-07T02:08:00.520Z,33.37
2018-05-07T02:09:53.280Z,35.08
2018-05-07T02:10:53.170Z,33.28
2018-05-07T02:12:46.017Z,32.99
2018-05-07T02:13:45.809Z,34.32
2018-05-07T02:15:38.588Z,29.57
2018-05-07T02:16:38.458Z,27.67
2018-05-07T02:18:31.210Z,30.43
2018-05-07T02:19:31.103Z,30.43
2018-05-07T02:21:23.892Z,30.14
2018-05-07T02:22:23.753Z,31.95
2018-05-07T02:24:16.539Z,31.37
2018-05-07T02:25:16.399Z,32.80
2018-05-07T02:27:09.148Z,33.09
2018-05-07T02:28:09.061Z,32.42
2018-05-07T02:30:01.882Z,24.81
2018-05-07T02:31:01.812Z,23.67
2018-05-07T02:32:54.557Z,23.20
2018-05-07T02:33:54.456Z,25.86
2018-05-07T02:35:47.222Z,27.09
2018-05-07T02:36:47.119Z,26.62
2018-05-07T02:38:39.842Z,28.52
2018-05-07T02:39:39.781Z,29.46
2018-05-07T02:41:32.470Z,30.23
2018-05-07T02:42:32.384Z,29.28
2018-05-07T02:44:25.247Z,29.95
2018-05-07T02:45:25.130Z,27.28
2018-05-07T02:47:18.001Z,27.19
2018-05-07T02:48:17.912Z,27.19
2018-05-07T02:50:10.765Z,27.38
2018-05-07T02:51:10.637Z,27.19
2018-05-07T02:53:03.396Z,26.51
2018-05-07T02:54:03.277Z,25.85
2018-05-07T02:55:56.048Z,23.28
2018-05-07T02:56:55.921Z,23.75
2018-05-07T02:58:48.697Z,25.95
2018-05-07T02:59:48.610Z,25.18
2018-05-07T03:01:41.316Z,27.00
2018-05-07T03:02:41.224Z,26.81
2018-05-07T03:04:33.982Z,25.27
2018-05-07T03:05:33.873Z,25.48
2018-05-07T03:07:26.637Z,27.28
2018-05-07T03:08:26.520Z,28.13
2018-05-07T03:10:19.309Z,32.59
2018-05-07T03:11:19.229Z,32.12
2018-05-07T03:13:11.918Z,31.64
2018-05-07T03:14:11.809Z,30.98
2018-05-07T03:16:04.556Z,30.88
2018-05-07T03:17:04.458Z,31.07
2018-05-07T03:18:57.302Z,29.36
2018-05-07T03:19:57.239Z,27.94
2018-05-07T03:21:49.989Z,29.55
2018-05-07T03:22:49.851Z,23.38
2018-05-07T03:24:42.620Z,24.80
2018-05-07T03:25:42.509Z,24.23
2018-05-07T03:27:35.361Z,21.00
2018-05-07T03:28:35.260Z,19.67
2018-05-07T03:30:28.033Z,18.91
2018-05-07T03:31:27.894Z,22.33
2018-05-07T03:33:20.862Z,24.04
2018-05-07T03:34:20.783Z,25.56
2018-05-07T03:36:13.523Z,23.47
2018-05-07T03:37:13.396Z,21.95
2018-05-07T03:39:06.243Z,24.23
2018-05-07T03:40:06.148Z,25.27
2018-05-07T03:41:58.929Z,27.08
2018-05-07T03:42:58.790Z,25.75
2018-05-07T03:44:51.635Z,25.37
2018-05-07T03:45:51.540Z,25.27
2018-05-07T03:47:44.303Z,25.18
2018-05-07T03:48:44.223Z,25.18
2018-05-07T03:50:36.951Z,26.51
2018-05-07T03:51:36.829Z,28.13
2018-05-07T03:53:29.691Z,28.51
2018-05-07T03:54:29.602Z,29.17
2018-05-07T03:56:22.323Z,29.36
2018-05-07T03:57:22.237Z,28.60
2018-05-07T03:59:15.102Z,29.17
2018-05-07T04:00:14.874Z,29.93
2018-05-07T04:02:07.654Z,29.64
2018-05-07T04:03:07.528Z,28.79
2018-05-07T04:05:00.277Z,27.37
2018-05-07T04:06:00.203Z,28.13
2018-05-07T04:07:52.975Z,23.94
2018-05-07T04:08:52.837Z,23.47
2018-05-07T04:10:45.700Z,25.75
2018-05-07T04:11:45.471Z,27.27
2018-05-07T04:13:38.246Z,28.13
2018-05-07T04:14:38.132Z,26.89
2018-05-07T04:16:31.005Z,25.85
2018-05-07T04:17:30.974Z,24.90
2018-05-07T04:19:23.727Z,25.09
2018-05-07T04:20:23.511Z,25.94
2018-05-07T04:22:16.254Z,25.09
2018-05-07T04:23:16.152Z,24.42
2018-05-07T04:25:09.033Z,24.13
2018-05-07T04:26:08.809Z,24.52
2018-05-07T04:28:01.623Z,24.99
2018-05-07T04:29:01.458Z,25.56
2018-05-07T04:30:54.310Z,25.94
2018-05-07T04:31:54.093Z,26.98
2018-05-07T04:33:46.934Z,29.55
2018-05-07T04:34:46.741Z,29.27
2018-05-07T04:36:39.493Z,29.08
2018-05-07T04:37:39.418Z,30.03
2018-05-07T04:39:32.146Z,31.55
2018-05-07T04:40:32.040Z,32.21
2018-05-07T04:42:24.800Z,32.97
2018-05-07T04:43:24.687Z,32.59
2018-05-07T04:45:17.564Z,30.88
2018-05-07T04:46:17.442Z,31.07
2018-05-07T04:48:10.325Z,28.51
2018-05-07T04:49:10.224Z,27.37
2018-05-07T04:51:03.070Z,28.14
2018-05-07T04:52:02.930Z,30.43
2018-05-07T04:53:55.696Z,31.28
2018-05-07T04:54:55.588Z,29.27
2018-05-07T04:56:48.349Z,27.09
2018-05-07T04:57:48.230Z,27.09
2018-05-07T04:59:41.014Z,28.71
2018-05-07T05:00:40.876Z,28.23
2018-05-07T05:02:33.661Z,29.75
2018-05-07T05:03:33.548Z,30.22
2018-05-07T05:05:26.273Z,31.28
2018-05-07T05:06:26.181Z,31.09
2018-05-07T05:08:18.939Z,29.28
2018-05-07T05:09:18.825Z,29.57
2018-05-07T05:11:11.617Z,29.19
2018-05-07T05:12:11.477Z,30.52
2018-05-07T05:14:04.236Z,32.32
2018-05-07T05:15:04.111Z,31.95
2018-05-07T05:16:56.868Z,36.70
2018-05-07T05:17:56.778Z,37.08
2018-05-07T05:19:49.636Z,38.31
2018-05-07T05:20:49.531Z,36.89
2018-05-07T05:22:42.282Z,39.84
2018-05-07T05:23:42.162Z,38.70
2018-05-07T05:25:34.938Z,38.89
2018-05-07T05:26:34.806Z,39.74
2018-05-07T05:28:27.694Z,39.93
2018-05-07T05:29:27.484Z,38.24
2018-05-07T05:31:20.345Z,39.09
2018-05-07T05:32:20.231Z,37.10
2018-05-07T05:34:12.970Z,36.53
2018-05-07T05:35:12.849Z,37.38
2018-05-07T05:37:05.599Z,39.00
2018-05-07T05:38:05.503Z,42.99
2018-05-07T05:39:58.390Z,42.04
2018-05-07T05:40:58.283Z,42.16
2018-05-07T05:42:51.109Z,47.58
2018-05-07T05:43:51.071Z,46.54
2018-05-07T05:45:43.756Z,53.39
2018-05-07T05:46:43.643Z,49.77
2018-05-07T05:48:36.482Z,49.87
2018-05-07T05:49:36.388Z,51.70
2018-05-07T05:51:29.148Z,45.70
2018-05-07T05:52:29.051Z,48.37
2018-05-07T05:54:21.792Z,52.37
2018-05-07T05:55:21.689Z,56.94
2018-05-07T05:57:14.537Z,58.65
2018-05-07T05:58:14.460Z,55.32
2018-05-07T06:00:07.242Z,55.35
2018-05-07T06:01:07.084Z,54.97
2018-05-07T06:02:59.862Z,54.30
2018-05-07T06:03:59.781Z,52.40
2018-05-07T06:05:52.580Z,46.01
2018-05-07T06:06:52.482Z,50.01
2018-05-07T06:08:45.255Z,53.25
2018-05-07T06:09:45.126Z,53.00
2018-05-07T06:11:37.890Z,52.61
2018-05-07T06:12:37.775Z,56.24
2018-05-07T06:14:30.586Z,67.04
2018-05-07T06:15:30.441Z,65.80
2018-05-07T06:17:23.360Z,66.28
2018-05-07T06:18:23.165Z,65.42
2018-05-07T06:20:15.916Z,68.22
2018-05-07T06:21:15.825Z,70.32
2018-05-07T06:23:08.578Z,74.13
2018-05-07T06:24:08.473Z,75.76
2018-05-07T06:26:01.236Z,77.28
2018-05-07T06:27:01.143Z,80.15
2018-05-07T06:28:53.873Z,84.44
2018-05-07T06:29:53.768Z,78.14
2018-05-07T06:31:46.512Z,84.25
2018-05-07T06:32:46.407Z,85.25
2018-05-07T06:34:39.167Z,88.40
2018-05-07T06:35:39.059Z,86.58
2018-05-07T06:37:31.828Z,89.06
2018-05-07T06:38:31.721Z,89.16
2018-05-07T06:40:24.477Z,89.54
2018-05-07T06:41:24.347Z,92.02
2018-05-07T06:43:17.144Z,93.31
2018-05-07T06:44:17.013Z,92.83
2018-05-07T06:46:09.844Z,91.69
2018-05-07T06:47:09.748Z,88.44
2018-05-07T06:49:02.522Z,88.63
2018-05-07T06:50:02.392Z,89.97
2018-05-07T06:51:55.153Z,88.68
2018-05-07T06:52:55.048Z,89.53
2018-05-07T06:54:47.903Z,91.64
2018-05-07T06:55:47.805Z,92.40
2018-05-07T06:57:40.555Z,92.79
2018-05-07T06:58:40.453Z,94.41
2018-05-07T07:00:33.200Z,88.68
2018-05-07T07:01:33.112Z,91.78
2018-05-07T07:03:25.844Z,91.49
2018-05-07T07:04:25.763Z,95.12
2018-05-07T07:06:18.706Z,94.65
2018-05-07T07:07:18.589Z,97.13
2018-05-07T07:09:11.339Z,95.98
2018-05-07T07:10:11.256Z,95.03
2018-05-07T07:12:03.994Z,93.16
2018-05-07T07:13:03.885Z,92.69
2018-05-07T07:14:56.766Z,98.71
2018-05-07T07:15:56.558Z,96.32
2018-05-07T07:17:49.327Z,99.19
2018-05-07T07:18:49.245Z,95.36
2018-05-07T07:20:41.944Z,93.84
2018-05-07T07:21:41.905Z,97.42
2018-05-07T07:23:34.761Z,96.27
2018-05-07T07:24:34.699Z,94.45
2018-05-07T07:26:27.990Z,95.22
2018-05-07T07:27:27.846Z,98.19
2018-05-07T07:29:20.682Z,92.35
2018-05-07T07:30:20.591Z,97.38
2018-05-07T07:32:13.386Z,97.66
2018-05-07T07:33:13.306Z,99.99
2018-05-07T07:35:06.585Z,99.99
2018-05-07T07:36:05.913Z,99.99
2018-05-07T07:37:58.636Z,99.99
2018-05-07T07:38:58.526Z,99.99
2018-05-07T07:40:51.292Z,99.99
2018-05-07T07:41:51.182Z,99.99
2018-05-07T07:43:43.935Z,99.99
2018-05-07T07:44:43.899Z,99.99
2018-05-07T07:46:36.562Z,99.99
2018-05-07T07:47:36.480Z,99.99
2018-05-07T07:49:29.352Z,99.99
2018-05-07T07:50:29.230Z,99.99
2018-05-07T07:52:22.105Z,99.99
2018-05-07T07:53:21.976Z,99.99
2018-05-07T07:55:14.829Z,99.99
2018-05-07T07:56:14.714Z,99.99
2018-05-07T07:58:07.474Z,99.99
2018-05-07T07:59:07.388Z,99.99
2018-05-07T08:01:00.638Z,99.99
2018-05-07T08:02:00.521Z,99.99
2018-05-07T08:03:53.368Z,99.99
2018-05-07T08:04:53.297Z,99.99
2018-05-07T08:06:46.144Z,99.99
2018-05-07T08:07:46.018Z,99.99
2018-05-07T08:09:39.907Z,99.99
2018-05-07T08:10:39.698Z,99.99
2018-05-07T08:12:32.549Z,99.99
2018-05-07T08:13:32.458Z,99.99
2018-05-07T08:15:25.339Z,99.99
2018-05-07T08:16:25.188Z,99.99
2018-05-07T08:18:18.033Z,99.99
2018-05-07T08:19:17.948Z,99.49
2018-05-07T08:21:10.800Z,99.99
2018-05-07T08:22:10.730Z,99.99
2018-05-07T08:24:03.558Z,94.68
2018-05-07T08:25:03.453Z,98.05
2018-05-07T08:26:56.336Z,96.80
2018-05-07T08:27:56.187Z,91.32
2018-05-07T08:29:49.035Z,92.96
2018-05-07T08:30:48.938Z,93.77
2018-05-07T08:32:41.895Z,91.46
2018-05-07T08:33:41.804Z,90.12
2018-05-07T08:35:34.641Z,89.83
2018-05-07T08:36:34.635Z,84.16
2018-05-07T08:38:27.399Z,84.63
2018-05-07T08:39:27.295Z,87.04
2018-05-07T08:41:20.180Z,86.18
2018-05-07T08:42:20.145Z,85.50
2018-05-07T08:44:12.975Z,85.02
2018-05-07T08:45:12.841Z,83.77
2018-05-07T08:47:05.651Z,79.44
2018-05-07T08:48:05.555Z,80.79
2018-05-07T08:49:58.389Z,81.40
2018-05-07T08:50:58.379Z,77.56
2018-05-07T08:52:51.279Z,79.10
2018-05-07T08:53:51.156Z,76.40
2018-05-07T08:55:43.978Z,74.48
2018-05-07T08:56:43.911Z,73.13
2018-05-07T08:58:36.774Z,69.95
2018-05-07T08:59:36.645Z,69.47
2018-05-07T09:01:29.480Z,68.80
2018-05-07T09:02:29.450Z,69.28
2018-05-07T09:04:22.250Z,66.42
2018-05-07T09:05:22.159Z,70.95
2018-05-07T09:07:15.019Z,68.06
2018-05-07T09:08:14.887Z,64.69
2018-05-07T09:10:07.766Z,60.75
2018-05-07T09:11:07.638Z,61.71
2018-05-07T09:13:00.518Z,60.46
2018-05-07T09:14:00.391Z,60.17
2018-05-07T09:15:53.258Z,60.65
2018-05-07T09:16:53.168Z,60.46
2018-05-07T09:18:45.995Z,64.50
2018-05-07T09:19:45.900Z,62.51
2018-05-07T09:21:38.738Z,60.30
2018-05-07T09:22:38.653Z,59.33
2018-05-07T09:24:31.495Z,58.56
2018-05-07T09:25:31.388Z,58.95
2018-05-07T09:27:24.247Z,59.23
2018-05-07T09:28:24.150Z,58.65
2018-05-07T09:30:16.994Z,59.52
2018-05-07T09:31:16.892Z,60.30
2018-05-07T09:33:09.736Z,60.17
2018-05-07T09:34:09.636Z,60.55
2018-05-07T09:36:02.496Z,59.91
2018-05-07T09:37:02.391Z,59.91
2018-05-07T09:38:55.252Z,61.83
2018-05-07T09:39:55.135Z,58.97
2018-05-07T09:41:47.990Z,59.17
2018-05-07T09:42:47.913Z,59.07
2018-05-07T09:44:40.744Z,57.92
2018-05-07T09:45:40.638Z,58.04
2018-05-07T09:47:33.477Z,58.97
2018-05-07T09:48:33.382Z,58.40
2018-05-07T09:50:26.250Z,59.36
2018-05-07T09:51:26.137Z,59.65
2018-05-07T09:53:18.974Z,58.30
2018-05-07T09:54:18.891Z,60.03
2018-05-07T09:56:11.766Z,58.97
2018-05-07T09:57:11.637Z,60.32
2018-05-07T09:59:04.510Z,58.88
2018-05-07T10:00:04.384Z,58.40
2018-05-07T10:01:57.241Z,58.59
2018-05-07T10:02:57.150Z,58.30
2018-05-07T10:04:49.991Z,57.53
2018-05-07T10:05:49.888Z,58.49
2018-05-07T10:07:42.735Z,58.04
2018-05-07T10:08:42.641Z,57.53
2018-05-07T10:10:35.513Z,58.04
2018-05-07T10:11:35.380Z,57.65
2018-05-07T10:13:28.234Z,58.14
2018-05-07T10:14:28.133Z,56.49
2018-05-07T10:16:20.987Z,56.01
2018-05-07T10:17:20.904Z,57.17
2018-05-07T10:19:13.738Z,57.75
2018-05-07T10:20:13.678Z,57.17
2018-05-07T10:22:06.503Z,56.30
2018-05-07T10:23:06.407Z,56.24
2018-05-07T10:25:00.163Z,57.27
2018-05-07T10:26:00.079Z,56.81
2018-05-07T10:27:52.992Z,55.18
2018-05-07T10:28:52.811Z,55.46
2018-05-07T10:30:45.638Z,55.46
2018-05-07T10:31:45.567Z,56.04
2018-05-07T10:33:38.406Z,54.60
2018-05-07T10:34:38.300Z,55.56
2018-05-07T10:36:31.147Z,52.76
2018-05-07T10:37:31.061Z,52.57
2018-05-07T10:39:24.832Z,52.95
2018-05-07T10:40:24.738Z,53.47
2018-05-07T10:42:17.562Z,53.08
2018-05-07T10:43:17.487Z,51.92
2018-05-07T10:45:10.367Z,52.76
2018-05-07T10:46:10.222Z,52.93
2018-05-07T10:48:03.188Z,54.31
2018-05-07T10:49:02.982Z,53.34
2018-05-07T10:50:56.329Z,52.76
2018-05-07T10:51:56.239Z,52.31
2018-05-07T10:53:49.610Z,51.34
2018-05-07T10:54:49.499Z,53.01
2018-05-07T10:56:42.341Z,51.85
2018-05-07T10:57:42.239Z,51.01
2018-05-07T10:59:35.103Z,51.65
2018-05-07T11:00:35.020Z,51.75
2018-05-07T11:02:27.846Z,51.87
2018-05-07T11:03:27.750Z,53.91
2018-05-07T11:05:20.597Z,50.98
2018-05-07T11:06:20.492Z,51.07
2018-05-07T11:08:13.858Z,51.05
2018-05-07T11:09:13.790Z,51.25
2018-05-07T11:11:06.607Z,52.28
2018-05-07T11:12:06.506Z,52.59
2018-05-07T11:13:59.352Z,52.79
2018-05-07T11:14:59.252Z,51.92
2018-05-07T11:16:52.125Z,51.10
2018-05-07T11:17:52.007Z,51.78
2018-05-07T11:19:44.984Z,49.27
2018-05-07T11:20:44.765Z,49.27
2018-05-07T11:22:37.628Z,50.04
2018-05-07T11:23:37.525Z,49.17
2018-05-07T11:25:30.398Z,49.27
2018-05-07T11:26:30.281Z,49.15
2018-05-07T11:28:23.093Z,50.11
2018-05-07T11:29:23.014Z,50.69
2018-05-07T11:31:15.852Z,51.39
2018-05-07T11:32:15.777Z,50.23
2018-05-07T11:34:08.586Z,48.32
2018-05-07T11:35:08.504Z,48.13
2018-05-07T11:37:01.358Z,47.84
2018-05-07T11:38:01.272Z,48.54
2018-05-07T11:39:54.120Z,47.77
2018-05-07T11:40:54.007Z,48.16
2018-05-07T11:42:46.871Z,47.16
2018-05-07T11:43:46.763Z,47.94
2018-05-07T11:45:39.582Z,46.68
2018-05-07T11:46:39.499Z,46.75
2018-05-07T11:48:32.358Z,47.43
2018-05-07T11:49:32.250Z,47.53
2018-05-07T11:51:25.124Z,47.24
2018-05-07T11:52:25.002Z,46.47
2018-05-07T11:54:17.880Z,45.81
2018-05-07T11:55:17.753Z,46.49
2018-05-07T11:57:10.602Z,45.62
2018-05-07T11:58:10.501Z,46.12
2018-05-07T12:00:03.367Z,46.03
2018-05-07T12:01:03.257Z,46.80
2018-05-07T12:02:56.110Z,47.07
2018-05-07T12:03:56.000Z,47.81
2018-05-07T12:05:48.897Z,47.81
2018-05-07T12:06:48.775Z,47.33
2018-05-07T12:08:41.600Z,47.81
2018-05-07T12:09:41.497Z,47.65
2018-05-07T12:11:34.349Z,48.42
2018-05-07T12:12:34.260Z,48.03
2018-05-07T12:14:27.115Z,47.91
2018-05-07T12:15:27.001Z,47.94
2018-05-07T12:17:20.346Z,47.36
2018-05-07T12:18:20.258Z,47.63
2018-05-07T12:20:13.109Z,45.98
2018-05-07T12:21:13.047Z,45.50
2018-05-07T12:23:05.868Z,45.01
2018-05-07T12:24:05.781Z,44.34
2018-05-07T12:25:58.649Z,45.23
2018-05-07T12:26:58.512Z,45.42
2018-05-07T12:28:51.359Z,45.23
2018-05-07T12:29:51.258Z,44.57
2018-05-07T12:31:44.276Z,44.77
2018-05-07T12:32:44.012Z,45.06
2018-05-07T12:34:36.894Z,45.64
2018-05-07T12:35:36.801Z,44.87
2018-05-07T12:37:29.612Z,44.38
2018-05-07T12:38:29.517Z,45.16
2018-05-07T12:40:22.410Z,46.32
2018-05-07T12:41:22.265Z,45.64
2018-05-07T12:43:15.097Z,45.14
2018-05-07T12:44:15.014Z,45.14
2018-05-07T12:46:07.860Z,44.89
2018-05-07T12:47:07.766Z,44.40
2018-05-07T12:49:00.628Z,43.82
2018-05-07T12:50:00.567Z,44.31
2018-05-07T12:51:53.424Z,44.12
2018-05-07T12:52:53.270Z,44.40
2018-05-07T12:54:46.138Z,44.98
2018-05-07T12:55:46.009Z,44.70
2018-05-07T12:57:38.878Z,45.28
2018-05-07T12:58:38.763Z,45.18
2018-05-07T13:00:31.611Z,45.40
2018-05-07T13:01:31.531Z,44.33
2018-05-07T13:03:24.384Z,43.77
2018-05-07T13:04:24.269Z,44.54
2018-05-07T13:06:17.642Z,41.76
2018-05-07T13:07:17.431Z,40.89
2018-05-07T13:09:10.256Z,41.16
2018-05-07T13:10:10.164Z,42.32
2018-05-07T13:12:03.071Z,41.55
2018-05-07T13:13:02.919Z,41.35
2018-05-07T13:14:55.776Z,42.40
2018-05-07T13:15:55.661Z,42.03
2018-05-07T13:17:48.543Z,42.71
2018-05-07T13:18:48.411Z,39.70
2018-05-07T13:20:41.275Z,40.86
2018-05-07T13:21:41.183Z,41.45
2018-05-07T13:23:34.593Z,41.66
2018-05-07T13:24:33.909Z,40.89
2018-05-07T13:26:26.802Z,41.55
2018-05-07T13:27:26.670Z,43.29
2018-05-07T13:29:19.557Z,41.91
2018-05-07T13:30:19.451Z,42.78
2018-05-07T13:32:12.269Z,42.96
2018-05-07T13:33:12.176Z,42.47
2018-05-07T13:35:05.033Z,43.92
2018-05-07T13:36:04.914Z,43.44
2018-05-07T13:37:57.799Z,43.54
2018-05-07T13:38:57.657Z,43.34
2018-05-07T13:40:50.500Z,43.27
2018-05-07T13:41:50.415Z,43.24
2018-05-07T13:43:43.258Z,43.27
2018-05-07T13:44:43.159Z,41.64
2018-05-07T13:46:35.994Z,41.30
2018-05-07T13:47:36.047Z,41.97
2018-05-07T13:49:31.866Z,39.94
2018-05-07T13:50:31.759Z,40.15
2018-05-07T13:52:24.970Z,40.23
2018-05-07T13:53:24.896Z,40.50
2018-05-07T13:55:18.234Z,40.89
2018-05-07T13:56:17.640Z,42.90
2018-05-07T13:58:14.436Z,42.71
2018-05-07T14:01:04.977Z,42.80
2018-05-07T14:02:04.888Z,42.92
2018-05-07T14:04:01.251Z,43.52
2018-05-07T14:05:01.195Z,42.26
2018-05-07T14:06:53.593Z,42.26
2018-05-07T14:07:53.450Z,41.68
2018-05-07T14:09:46.325Z,41.39
2018-05-07T14:10:46.210Z,41.30
2018-05-07T14:12:39.569Z,40.92
2018-05-07T14:13:39.464Z,39.29
2018-05-07T14:15:32.317Z,39.70
2018-05-07T14:16:32.209Z,39.90
2018-05-07T14:18:25.063Z,39.80
2018-05-07T14:19:24.970Z,39.51
2018-05-07T14:21:17.857Z,39.18
2018-05-07T14:22:17.711Z,40.33
2018-05-07T14:24:10.591Z,41.49
2018-05-07T14:25:10.477Z,40.54
2018-05-07T14:27:03.305Z,40.42
2018-05-07T14:28:03.206Z,41.49
2018-05-07T14:29:56.051Z,41.99
2018-05-07T14:30:55.957Z,41.92
2018-05-07T14:32:48.830Z,39.98
2018-05-07T14:33:48.712Z,40.92
2018-05-07T14:35:41.565Z,40.92
2018-05-07T14:36:41.481Z,39.88
2018-05-07T14:38:34.304Z,39.59
2018-05-07T14:39:34.213Z,41.72
2018-05-07T14:41:27.111Z,39.92
2018-05-07T14:42:27.006Z,40.11
2018-05-07T14:44:19.824Z,39.16
2018-05-07T14:45:19.711Z,38.67
2018-05-07T14:47:12.591Z,36.94
2018-05-07T14:48:12.482Z,35.29
2018-05-07T14:50:05.310Z,36.05
2018-05-07T14:51:05.210Z,36.73
2018-05-07T14:52:58.068Z,36.63
2018-05-07T14:53:57.973Z,37.49
2018-05-07T14:55:50.854Z,37.32
2018-05-07T14:56:50.709Z,36.55
2018-05-07T14:58:43.690Z,37.16
2018-05-07T14:59:43.461Z,35.80
2018-05-07T15:01:36.291Z,35.03
2018-05-07T15:02:36.205Z,34.76
2018-05-07T15:04:29.077Z,33.23
2018-05-07T15:05:29.015Z,33.15
2018-05-07T15:07:21.805Z,30.73
2018-05-07T15:08:21.706Z,30.83
2018-05-07T15:10:15.687Z,31.60
2018-05-07T15:11:14.964Z,31.04
2018-05-07T15:13:07.793Z,29.85
2018-05-07T15:14:07.716Z,30.44
2018-05-07T15:16:00.583Z,31.12
2018-05-07T15:17:00.470Z,30.55
2018-05-07T15:18:53.322Z,31.51
2018-05-07T15:19:53.227Z,30.52
2018-05-07T15:21:46.112Z,30.24
2018-05-07T15:22:45.963Z,30.83
2018-05-07T15:24:38.834Z,29.67
2018-05-07T15:25:38.732Z,27.93
2018-05-07T15:27:31.600Z,27.65
2018-05-07T15:28:31.510Z,27.94
2018-05-07T15:30:24.368Z,28.04
2018-05-07T15:31:24.217Z,27.83
2018-05-07T15:33:17.236Z,27.94
2018-05-07T15:34:16.968Z,28.92
2018-05-07T15:36:09.815Z,26.59
2018-05-07T15:37:09.709Z,26.49
2018-05-07T15:39:02.547Z,27.06
2018-05-07T15:40:02.481Z,26.98
2018-05-07T15:41:55.313Z,26.70
2018-05-07T15:42:55.227Z,26.59
2018-05-07T15:44:48.064Z,26.20
2018-05-07T15:45:48.032Z,26.68
2018-05-07T15:47:40.832Z,26.29
2018-05-07T15:48:40.717Z,26.49
2018-05-07T15:50:33.580Z,26.28
2018-05-07T15:51:33.465Z,26.09
2018-05-07T15:53:26.379Z,26.06
2018-05-07T15:54:26.226Z,26.27
2018-05-07T15:56:19.584Z,25.59
2018-05-07T15:57:19.479Z,25.59
2018-05-07T15:59:12.336Z,26.06
2018-05-07T16:00:12.225Z,26.37
2018-05-07T16:02:05.079Z,25.70
2018-05-07T16:03:05.068Z,24.63
2018-05-07T16:04:57.810Z,24.63
2018-05-07T16:05:57.771Z,24.74
2018-05-07T16:07:50.598Z,23.97
2018-05-07T16:08:50.533Z,24.26
2018-05-07T16:10:44.740Z,23.39
2018-05-07T16:11:44.651Z,23.90
2018-05-07T16:13:37.539Z,23.21
2018-05-07T16:14:37.448Z,22.72
2018-05-07T16:16:30.279Z,22.23
2018-05-07T16:17:30.175Z,22.61
2018-05-07T16:19:23.018Z,21.62
2018-05-07T16:20:22.942Z,22.22
2018-05-07T16:22:15.879Z,22.22
2018-05-07T16:23:15.893Z,22.23
2018-05-07T16:25:08.495Z,22.13
2018-05-07T16:26:08.406Z,21.26
2018-05-07T16:28:01.292Z,21.06
2018-05-07T16:29:01.153Z,21.56
2018-05-07T16:30:54.090Z,21.06
2018-05-07T16:31:53.940Z,21.26
2018-05-07T16:33:46.762Z,20.56
2018-05-07T16:34:46.661Z,21.15
2018-05-07T16:36:40.049Z,20.86
2018-05-07T16:37:39.418Z,21.25
2018-05-07T16:39:32.309Z,21.16
2018-05-07T16:40:32.157Z,20.57
2018-05-07T16:42:24.999Z,20.86
2018-05-07T16:43:24.926Z,20.56
2018-05-07T16:45:17.792Z,20.07
2018-05-07T16:46:17.671Z,20.56
2018-05-07T16:48:10.509Z,20.09
2018-05-07T16:49:10.447Z,20.67
2018-05-07T16:51:03.312Z,19.79
2018-05-07T16:52:04.197Z,19.69
2018-05-07T16:53:56.531Z,20.87
2018-05-07T16:54:55.914Z,21.16
2018-05-07T16:56:48.754Z,20.19
2018-05-07T16:57:48.670Z,19.89
2018-05-07T16:59:41.539Z,20.17
2018-05-07T17:00:41.466Z,21.64
2018-05-07T17:02:34.297Z,20.86
2018-05-07T17:03:34.155Z,21.45
2018-05-07T17:05:27.038Z,21.15
2018-05-07T17:06:26.919Z,21.24
2018-05-07T17:08:19.799Z,21.25
2018-05-07T17:09:19.688Z,21.15
2018-05-07T17:11:13.048Z,21.15
2018-05-07T17:12:12.922Z,21.74
2018-05-07T17:14:05.933Z,21.35
2018-05-07T17:15:05.783Z,21.35
2018-05-07T17:16:58.662Z,21.53
2018-05-07T17:17:58.528Z,22.23
2018-05-07T17:19:51.475Z,22.33
2018-05-07T17:20:51.381Z,21.45
2018-05-07T17:22:44.234Z,22.02
2018-05-07T17:23:44.129Z,22.02
2018-05-07T17:25:38.002Z,22.02
2018-05-07T17:26:36.876Z,22.31
2018-05-07T17:28:29.799Z,22.61
2018-05-07T17:29:29.632Z,22.21
2018-05-07T17:31:22.449Z,22.59
2018-05-07T17:32:22.386Z,22.58
2018-05-07T17:34:15.207Z,22.88
2018-05-07T17:35:15.128Z,22.78
2018-05-07T17:37:08.030Z,22.30
2018-05-07T17:38:07.897Z,22.69
2018-05-07T17:40:00.770Z,22.49
2018-05-07T17:41:00.630Z,22.80
2018-05-07T17:42:53.459Z,22.98
2018-05-07T17:43:53.379Z,23.66
2018-05-07T17:45:46.210Z,23.57
2018-05-07T17:46:46.129Z,22.87
2018-05-07T17:48:38.971Z,23.85
2018-05-07T17:49:38.878Z,23.65
2018-05-07T17:51:31.754Z,23.64
2018-05-07T17:52:31.652Z,24.32
2018-05-07T17:54:24.531Z,23.74
2018-05-07T17:55:24.439Z,24.71
2018-05-07T17:57:17.204Z,26.02
2018-05-07T17:58:17.127Z,27.05
2018-05-07T18:00:09.958Z,29.35
2018-05-07T18:01:09.889Z,30.09
2018-05-07T18:03:02.684Z,31.31
2018-05-07T18:04:02.618Z,32.47
2018-05-07T18:05:55.461Z,34.39
2018-05-07T18:06:55.367Z,35.35
2018-05-07T18:08:48.261Z,36.68
2018-05-07T18:09:48.112Z,35.99
2018-05-07T18:11:41.014Z,37.54
2018-05-07T18:12:40.872Z,37.71
2018-05-07T18:14:33.696Z,37.81
2018-05-07T18:15:33.614Z,38.08
2018-05-07T18:17:26.471Z,39.41
2018-05-07T18:18:26.376Z,39.41
2018-05-07T18:20:19.320Z,40.67
2018-05-07T18:21:19.192Z,39.78
2018-05-07T18:23:11.934Z,41.23
2018-05-07T18:24:11.853Z,39.87
2018-05-07T18:26:04.737Z,40.82
2018-05-07T18:27:04.620Z,40.53
2018-05-07T18:28:57.463Z,42.08
2018-05-07T18:29:57.348Z,41.30
2018-05-07T18:31:50.230Z,42.63
2018-05-07T18:32:50.103Z,42.73